createdAt,value
2023-03-04T00:01:07.489Z,58.88
2023-03-04T00:03:37.416Z,59.27
2023-03-04T00:06:06.124Z,59.48
2023-03-04T00:08:34.908Z,59.64
2023-03-04T00:11:03.087Z,59.81
2023-03-04T00:13:31.372Z,60.02
2023-03-04T00:15:59.740Z,60.30
2023-03-04T00:18:27.926Z,60.26
2023-03-04T00:20:56.211Z,60.33
2023-03-04T00:23:24.692Z,60.42
2023-03-04T00:25:53.076Z,60.55
2023-03-04T00:28:21.464Z,60.63
2023-03-04T00:30:49.848Z,60.45
2023-03-04T00:33:18.234Z,60.35
2023-03-04T00:35:46.557Z,60.40
2023-03-04T00:38:14.895Z,60.47
2023-03-04T00:40:44.550Z,60.56
2023-03-04T00:43:13.306Z,60.51
2023-03-04T00:45:42.129Z,60.54
2023-03-04T00:48:10.686Z,60.63
2023-03-04T00:50:39.167Z,60.66
2023-03-04T00:53:07.558Z,60.82
2023-03-04T00:55:36.298Z,60.75
2023-03-04T00:58:04.841Z,60.95
2023-03-04T01:00:33.118Z,60.85
2023-03-04T01:03:01.502Z,60.81
2023-03-04T01:05:29.886Z,60.87
2023-03-04T01:07:58.163Z,60.57
2023-03-04T01:10:26.444Z,60.60
2023-03-04T01:12:54.629Z,60.81
2023-03-04T01:15:23.425Z,60.54
2023-03-04T01:17:51.844Z,60.47
2023-03-04T01:20:20.289Z,60.50
2023-03-04T01:22:48.573Z,60.37
2023-03-04T01:25:16.956Z,60.52
2023-03-04T01:27:45.237Z,60.85
2023-03-04T01:30:13.640Z,60.73
2023-03-04T01:32:42.028Z,60.68
2023-03-04T01:35:10.801Z,60.45
2023-03-04T01:37:39.618Z,60.85
2023-03-04T01:40:09.879Z,61.10
2023-03-04T01:42:40.157Z,61.05
2023-03-04T01:45:16.730Z,61.09
2023-03-04T01:47:50.595Z,61.18
2023-03-04T01:50:19.020Z,61.57
2023-03-04T01:52:47.511Z,61.34
2023-03-04T01:55:19.268Z,61.33
2023-03-04T01:57:50.123Z,61.30
2023-03-04T02:00:26.904Z,61.05
2023-03-04T02:03:08.032Z,61.43
2023-03-04T02:05:38.696Z,61.49
2023-03-04T02:08:08.222Z,61.52
2023-03-04T02:10:39.367Z,61.79
2023-03-04T02:13:07.633Z,61.53
2023-03-04T02:15:36.127Z,61.78
2023-03-04T02:18:23.674Z,61.96
2023-03-04T02:21:19.973Z,62.05
2023-03-04T02:24:15.573Z,62.17
2023-03-04T02:26:47.018Z,62.39
2023-03-04T02:29:17.202Z,62.33
2023-03-04T02:31:49.009Z,62.01
2023-03-04T02:34:30.107Z,62.24
2023-03-04T02:36:59.127Z,62.59
2023-03-04T02:39:33.303Z,62.29
2023-03-04T02:42:03.333Z,62.79
2023-03-04T02:44:37.495Z,62.95
2023-03-04T02:47:09.273Z,63.04
2023-03-04T02:49:41.322Z,63.12
2023-03-04T02:52:14.671Z,63.44
2023-03-04T02:54:43.112Z,63.45
2023-03-04T02:57:13.984Z,64.03
2023-03-04T02:59:43.924Z,64.61
2023-03-04T03:02:16.093Z,64.62
2023-03-04T03:04:44.396Z,64.51
2023-03-04T03:07:14.804Z,64.43
2023-03-04T03:09:43.302Z,64.71
2023-03-04T03:12:11.675Z,64.46
2023-03-04T03:14:40.161Z,64.46
2023-03-04T03:17:10.567Z,64.44
2023-03-04T03:19:38.775Z,64.48
2023-03-04T03:22:08.286Z,64.82
2023-03-04T03:24:37.192Z,64.35
2023-03-04T03:27:05.478Z,64.56
2023-03-04T03:29:34.350Z,64.73
2023-03-04T03:32:02.548Z,64.58
2023-03-04T03:34:30.815Z,64.24
2023-03-04T03:36:59.211Z,64.02
2023-03-04T03:39:27.590Z,64.30
2023-03-04T03:41:56.377Z,64.20
2023-03-04T03:44:24.759Z,64.39
2023-03-04T03:46:53.252Z,64.40
2023-03-04T03:49:21.938Z,64.62
2023-03-04T03:51:50.530Z,64.49
2023-03-04T03:54:18.824Z,64.52
2023-03-04T03:56:47.398Z,64.55
2023-03-04T03:59:15.684Z,64.85
2023-03-04T04:01:44.094Z,64.82
2023-03-04T04:04:12.350Z,65.00
2023-03-04T04:06:40.639Z,64.56
2023-03-04T04:09:08.809Z,64.97
2023-03-04T04:11:37.299Z,64.72
2023-03-04T04:14:05.581Z,64.69
2023-03-04T04:16:33.847Z,65.10
2023-03-04T04:19:02.257Z,64.84
2023-03-04T04:21:30.558Z,65.01
2023-03-04T04:23:58.809Z,65.04
2023-03-04T04:26:29.447Z,65.05
2023-03-04T04:28:57.938Z,65.18
2023-03-04T04:31:26.124Z,64.79
2023-03-04T04:33:54.498Z,64.97
2023-03-04T04:36:22.880Z,64.93
2023-03-04T04:39:05.286Z,65.17
2023-03-04T04:41:43.185Z,65.32
2023-03-04T04:44:12.965Z,65.10
2023-03-04T04:46:42.162Z,65.00
2023-03-04T04:49:11.435Z,65.30
2023-03-04T04:51:39.915Z,65.40
2023-03-04T04:54:08.400Z,65.29
2023-03-04T04:56:37.072Z,65.47
2023-03-04T04:59:08.846Z,65.70
2023-03-04T05:01:37.577Z,65.42
2023-03-04T05:04:06.441Z,65.43
2023-03-04T05:06:34.811Z,65.52
2023-03-04T05:09:04.635Z,65.46
2023-03-04T05:11:33.211Z,65.35
2023-03-04T05:14:01.411Z,65.03
2023-03-04T05:16:30.187Z,65.11
2023-03-04T05:18:58.581Z,65.11
2023-03-04T05:21:26.858Z,65.41
2023-03-04T05:23:55.344Z,65.63
2023-03-04T05:26:23.522Z,65.49
2023-03-04T05:28:51.912Z,65.53
2023-03-04T05:31:20.440Z,65.58
2023-03-04T05:33:48.682Z,65.95
2023-03-04T05:36:17.176Z,65.76
2023-03-04T05:38:45.757Z,65.83
2023-03-04T05:41:14.042Z,65.81
2023-03-04T05:43:43.064Z,65.90
2023-03-04T05:46:17.361Z,66.08
2023-03-04T05:48:45.846Z,66.44
2023-03-04T05:51:14.225Z,66.35
2023-03-04T05:53:42.508Z,66.37
2023-03-04T05:56:16.316Z,66.04
2023-03-04T05:58:45.216Z,66.17
2023-03-04T06:01:14.713Z,66.03
2023-03-04T06:03:43.787Z,65.75
2023-03-04T06:06:12.112Z,65.77
2023-03-04T06:08:40.383Z,65.53
2023-03-04T06:11:09.060Z,65.77
2023-03-04T06:13:38.482Z,65.71
2023-03-04T06:16:07.518Z,65.54
2023-03-04T06:18:35.988Z,65.64
2023-03-04T06:21:04.796Z,65.59
2023-03-04T06:23:33.148Z,65.40
2023-03-04T06:26:02.016Z,65.21
2023-03-04T06:28:30.594Z,65.60
2023-03-04T06:30:59.019Z,65.57
2023-03-04T06:33:27.519Z,65.48
2023-03-04T06:35:57.453Z,65.42
2023-03-04T06:38:26.997Z,65.67
2023-03-04T06:40:57.461Z,65.92
2023-03-04T06:43:26.211Z,65.84
2023-03-04T06:45:54.855Z,65.68
2023-03-04T06:48:23.645Z,65.79
2023-03-04T06:50:52.047Z,66.15
2023-03-04T06:53:20.308Z,66.06
2023-03-04T06:55:49.823Z,66.02
2023-03-04T06:58:18.409Z,65.90
2023-03-04T07:00:46.941Z,66.24
2023-03-04T07:03:15.379Z,65.94
2023-03-04T07:05:44.172Z,65.78
2023-03-04T07:08:12.864Z,65.88
2023-03-04T07:10:41.572Z,65.75
2023-03-04T07:13:09.842Z,65.89
2023-03-04T07:15:38.436Z,65.90
2023-03-04T07:18:06.718Z,66.11
2023-03-04T07:20:35.202Z,66.11
2023-03-04T07:23:03.487Z,66.32
2023-03-04T07:25:32.179Z,66.11
2023-03-04T07:28:10.397Z,66.54
2023-03-04T07:30:38.868Z,66.32
2023-03-04T07:33:07.459Z,66.25
2023-03-04T07:35:56.037Z,66.23
2023-03-04T07:38:36.763Z,66.27
2023-03-04T07:41:05.772Z,66.23
2023-03-04T07:43:34.089Z,65.98
2023-03-04T07:46:03.130Z,65.84
2023-03-04T07:48:32.050Z,65.44
2023-03-04T07:51:21.515Z,65.22
2023-03-04T07:53:52.257Z,64.94
2023-03-04T07:56:24.139Z,64.56
2023-03-04T07:58:56.488Z,63.73
2023-03-04T08:01:34.795Z,62.88
2023-03-04T08:04:05.557Z,60.47
2023-03-04T08:06:34.701Z,59.73
2023-03-04T08:09:08.241Z,59.04
2023-03-04T08:11:38.288Z,58.14
2023-03-04T08:14:07.167Z,57.04
2023-03-04T08:16:35.578Z,56.63
2023-03-04T08:19:04.838Z,56.78
2023-03-04T08:21:33.911Z,55.61
2023-03-04T08:24:08.428Z,55.52
2023-03-04T08:26:46.072Z,55.25
2023-03-04T08:29:23.662Z,54.70
2023-03-04T08:31:54.350Z,53.82
2023-03-04T08:34:25.649Z,53.47
2023-03-04T08:36:54.784Z,53.03
2023-03-04T08:39:23.237Z,52.73
2023-03-04T08:41:51.844Z,51.40
2023-03-04T08:44:20.728Z,51.15
2023-03-04T08:46:49.120Z,51.43
2023-03-04T08:49:17.489Z,51.29
2023-03-04T08:51:46.606Z,49.67
2023-03-04T08:54:14.981Z,48.95
2023-03-04T08:56:43.591Z,48.92
2023-03-04T08:59:12.222Z,47.36
2023-03-04T09:01:40.694Z,47.53
2023-03-04T09:04:09.255Z,48.06
2023-03-04T09:06:41.712Z,46.57
2023-03-04T09:09:10.012Z,46.72
2023-03-04T09:11:38.762Z,46.22
2023-03-04T09:14:07.154Z,44.54
2023-03-04T09:16:44.236Z,43.70
2023-03-04T09:19:16.117Z,43.64
2023-03-04T09:21:44.600Z,42.82
2023-03-04T09:24:13.190Z,42.06
2023-03-04T09:26:41.472Z,41.71
2023-03-04T09:29:10.473Z,40.84
2023-03-04T09:31:38.921Z,40.43
2023-03-04T09:34:07.457Z,38.87
2023-03-04T09:36:35.753Z,37.64
2023-03-04T09:39:04.992Z,36.28
2023-03-04T09:42:07.968Z,35.63
2023-03-04T09:44:49.698Z,34.01
2023-03-04T09:47:21.863Z,34.04
2023-03-04T09:50:11.164Z,34.42
2023-03-04T09:53:08.070Z,33.25
2023-03-04T09:55:42.587Z,32.37
2023-03-04T09:58:26.844Z,32.04
2023-03-04T10:01:17.431Z,30.79
2023-03-04T10:03:52.320Z,29.32
2023-03-04T10:06:23.296Z,29.60
2023-03-04T10:09:02.945Z,28.25
2023-03-04T10:11:43.204Z,27.33
2023-03-04T10:14:23.859Z,27.50
2023-03-04T10:16:53.575Z,26.82
2023-03-04T10:19:44.980Z,26.75
2023-03-04T10:22:41.424Z,25.99
2023-03-04T10:25:20.680Z,25.60
2023-03-04T10:27:53.326Z,26.59
2023-03-04T10:30:53.122Z,25.23
2023-03-04T10:33:25.964Z,24.57
2023-03-04T10:36:28.971Z,22.70
2023-03-04T10:39:08.199Z,23.38
2023-03-04T10:41:37.287Z,24.71
2023-03-04T10:44:08.964Z,23.18
2023-03-04T10:46:49.219Z,23.48
2023-03-04T10:49:25.268Z,22.28
2023-03-04T10:52:21.799Z,22.15
2023-03-04T10:54:54.075Z,21.69
2023-03-04T10:57:38.116Z,20.85
2023-03-04T11:00:18.501Z,21.02
2023-03-04T11:02:48.204Z,21.31
2023-03-04T11:05:24.828Z,21.55
2023-03-04T11:08:00.195Z,21.32
2023-03-04T11:11:16.522Z,20.07
2023-03-04T11:14:03.971Z,19.47
2023-03-04T11:16:34.929Z,19.50
2023-03-04T11:19:25.167Z,20.36
2023-03-04T11:21:55.351Z,20.10
2023-03-04T11:24:29.847Z,20.36
2023-03-04T11:26:58.149Z,19.67
2023-03-04T11:29:43.621Z,19.35
2023-03-04T11:32:22.730Z,19.17
2023-03-04T11:35:18.752Z,18.97
2023-03-04T11:38:02.404Z,18.84
2023-03-04T11:40:36.434Z,19.49
2023-03-04T11:43:16.683Z,19.22
2023-03-04T11:46:08.092Z,19.89
2023-03-04T11:48:52.069Z,20.24
2023-03-04T11:51:46.866Z,19.28
2023-03-04T11:54:24.544Z,19.84
2023-03-04T11:57:12.772Z,19.62
2023-03-04T12:00:09.490Z,19.40
2023-03-04T12:03:40.586Z,19.61
2023-03-04T12:07:00.259Z,20.01
2023-03-04T12:09:45.630Z,20.76
2023-03-04T12:12:17.272Z,20.86
2023-03-04T12:14:55.816Z,21.36
2023-03-04T12:17:38.824Z,21.29
2023-03-04T12:20:52.236Z,20.54
2023-03-04T12:23:33.616Z,20.63
2023-03-04T12:26:31.065Z,20.97
2023-03-04T12:29:02.413Z,20.79
2023-03-04T12:31:43.397Z,21.17
2023-03-04T12:34:33.376Z,20.91
2023-03-04T12:37:31.225Z,20.54
2023-03-04T12:44:45.041Z,20.57
2023-03-04T12:47:22.725Z,19.33
2023-03-04T12:50:10.538Z,19.02
2023-03-04T12:52:47.846Z,19.09
2023-03-04T12:55:19.606Z,18.70
2023-03-04T12:57:52.278Z,18.81
2023-03-04T13:00:44.606Z,17.92
2023-03-04T13:03:42.676Z,17.60
2023-03-04T13:06:43.689Z,18.27
2023-03-04T13:09:17.098Z,16.94
2023-03-04T13:11:52.748Z,16.49
2023-03-04T13:14:21.147Z,16.07
2023-03-04T13:16:54.222Z,16.35
2023-03-04T13:19:46.853Z,15.91
2023-03-04T13:22:42.616Z,15.25
2023-03-04T13:25:42.572Z,15.59
2023-03-04T13:28:11.068Z,15.65
2023-03-04T13:30:42.320Z,14.65
2023-03-04T13:33:16.278Z,13.55
2023-03-04T13:35:50.438Z,13.23
2023-03-04T13:38:30.920Z,13.10
2023-03-04T13:41:23.220Z,12.53
2023-03-04T13:43:58.617Z,13.63
2023-03-04T13:46:27.845Z,13.06
2023-03-04T13:48:56.558Z,12.73
2023-03-04T13:51:40.606Z,13.14
2023-03-04T13:54:17.069Z,12.74
2023-03-04T13:57:08.997Z,13.35
2023-03-04T13:59:46.690Z,13.07
2023-03-04T14:02:15.982Z,13.52
2023-03-04T14:04:54.212Z,13.03
2023-03-04T14:07:27.601Z,13.40
2023-03-04T14:09:57.411Z,13.42
2023-03-04T14:12:28.763Z,13.66
2023-03-04T14:15:00.834Z,13.87
2023-03-04T14:17:35.330Z,14.20
2023-03-04T14:20:05.657Z,14.43
2023-03-04T14:22:40.220Z,14.14
2023-03-04T14:25:14.440Z,14.59
2023-03-04T14:27:42.739Z,14.86
2023-03-04T14:30:39.119Z,14.42
2023-03-04T14:33:18.444Z,14.51
2023-03-04T14:35:53.466Z,14.15
2023-03-04T14:38:39.640Z,14.09
2023-03-04T14:41:21.283Z,14.11
2023-03-04T14:44:13.136Z,14.85
2023-03-04T14:47:06.077Z,15.42
2023-03-04T14:49:49.882Z,14.95
2023-03-04T14:52:39.963Z,15.57
2023-03-04T14:55:15.125Z,15.83
2023-03-04T14:58:01.941Z,15.86
2023-03-04T15:00:35.773Z,15.71
2023-03-04T15:03:21.730Z,15.33
2023-03-04T15:06:06.928Z,15.60
2023-03-04T15:08:41.281Z,16.19
2023-03-04T15:11:22.786Z,16.46
2023-03-04T15:13:54.893Z,16.85
2023-03-04T15:16:27.097Z,17.39
2023-03-04T15:19:00.628Z,17.58
2023-03-04T15:21:38.145Z,18.52
2023-03-04T15:24:10.181Z,19.51
2023-03-04T15:26:40.895Z,20.42
2023-03-04T15:29:17.865Z,21.25
2023-03-04T15:31:51.874Z,22.14
2023-03-04T15:34:20.816Z,22.83
2023-03-04T15:36:51.146Z,23.26
2023-03-04T15:39:24.191Z,23.89
2023-03-04T15:42:14.214Z,24.35
2023-03-04T15:44:42.578Z,24.96
2023-03-04T15:47:13.971Z,25.18
2023-03-04T15:49:44.667Z,25.87
2023-03-04T15:52:18.593Z,26.21
2023-03-04T15:54:49.053Z,26.81
2023-03-04T15:57:35.507Z,27.16
2023-03-04T16:00:04.416Z,27.47
2023-03-04T16:02:39.938Z,27.90
2023-03-04T16:05:09.635Z,28.34
2023-03-04T16:07:40.725Z,28.57
2023-03-04T16:10:18.719Z,28.96
2023-03-04T16:12:47.047Z,29.17
2023-03-04T16:15:21.945Z,29.36
2023-03-04T16:17:51.140Z,29.54
2023-03-04T16:20:22.899Z,29.83
2023-03-04T16:22:55.187Z,30.32
2023-03-04T16:25:25.164Z,30.53
2023-03-04T16:28:03.000Z,30.82
2023-03-04T16:30:32.240Z,31.34
2023-03-04T16:33:00.578Z,31.78
2023-03-04T16:35:29.902Z,32.64
2023-03-04T16:37:58.885Z,32.94
2023-03-04T16:40:30.025Z,33.14
2023-03-04T16:42:58.421Z,33.76
2023-03-04T16:45:31.852Z,34.04
2023-03-04T16:48:00.304Z,34.52
2023-03-04T16:50:30.102Z,34.93
2023-03-04T16:52:58.395Z,35.30
2023-03-04T16:55:29.230Z,35.48
2023-03-04T16:57:58.443Z,35.76
2023-03-04T17:00:28.910Z,35.96
2023-03-04T17:03:00.371Z,36.12
2023-03-04T17:05:31.897Z,36.06
2023-03-04T17:08:00.163Z,35.92
2023-03-04T17:10:28.654Z,35.94
2023-03-04T17:12:57.179Z,35.86
2023-03-04T17:15:25.522Z,36.17
2023-03-04T17:17:54.116Z,37.10
2023-03-04T17:20:23.065Z,37.22
2023-03-04T17:22:51.394Z,37.40
2023-03-04T17:25:19.796Z,37.84
2023-03-04T17:27:48.051Z,38.01
2023-03-04T17:30:17.090Z,38.35
2023-03-04T17:32:45.546Z,38.50
2023-03-04T17:35:14.228Z,38.72
2023-03-04T17:37:42.717Z,39.02
2023-03-04T17:40:15.314Z,38.98
2023-03-04T17:42:44.006Z,39.13
2023-03-04T17:45:12.475Z,39.23
2023-03-04T17:47:40.968Z,39.40
2023-03-04T17:50:10.738Z,39.45
2023-03-04T17:52:54.221Z,39.58
2023-03-04T17:55:22.904Z,39.88
2023-03-04T17:57:53.253Z,40.08
2023-03-04T18:00:22.308Z,40.08
2023-03-04T18:03:20.265Z,40.34
2023-03-04T18:05:55.600Z,40.56
2023-03-04T18:08:28.521Z,40.64
2023-03-04T18:10:59.565Z,40.70
2023-03-04T18:13:28.049Z,40.77
2023-03-04T18:15:56.834Z,41.06
2023-03-04T18:18:25.328Z,41.24
2023-03-04T18:21:00.880Z,41.28
2023-03-04T18:23:29.571Z,40.88
2023-03-04T18:25:58.174Z,40.57
2023-03-04T18:28:26.552Z,41.28
2023-03-04T18:30:58.413Z,41.42
2023-03-04T18:33:28.228Z,40.92
2023-03-04T18:36:01.437Z,41.12
2023-03-04T18:38:31.453Z,40.87
2023-03-04T18:41:08.829Z,40.88
2023-03-04T18:43:37.777Z,40.98
2023-03-04T18:46:17.166Z,41.91
2023-03-04T18:48:49.027Z,41.84
2023-03-04T18:51:17.430Z,41.85
2023-03-04T18:53:46.189Z,41.90
2023-03-04T18:56:37.804Z,41.88
2023-03-04T18:59:17.872Z,42.16
2023-03-04T19:01:47.433Z,42.36
2023-03-04T19:04:18.362Z,42.25
2023-03-04T19:06:47.436Z,42.54
2023-03-04T19:09:16.130Z,42.64
2023-03-04T19:11:44.295Z,42.64
2023-03-04T19:14:13.027Z,43.07
2023-03-04T19:16:41.540Z,43.20
2023-03-04T19:19:09.810Z,43.25
2023-03-04T19:21:39.061Z,43.18
2023-03-04T19:24:08.082Z,43.48
2023-03-04T19:26:36.448Z,43.96
2023-03-04T19:29:05.958Z,43.88
2023-03-04T19:31:34.540Z,44.03
2023-03-04T19:34:02.828Z,44.42
2023-03-04T19:36:32.134Z,44.41
2023-03-04T19:39:01.344Z,45.06
2023-03-04T19:41:30.233Z,45.92
2023-03-04T19:43:58.930Z,45.72
2023-03-04T19:46:28.302Z,46.21
2023-03-04T19:48:56.816Z,46.68
2023-03-04T19:51:29.098Z,46.97
2023-03-04T19:53:57.367Z,46.87
2023-03-04T19:56:25.853Z,46.88
2023-03-04T19:58:56.292Z,47.02
2023-03-04T20:01:28.522Z,46.86
2023-03-04T20:04:04.638Z,47.21
2023-03-04T20:06:36.686Z,47.71
2023-03-04T20:09:05.670Z,47.81
2023-03-04T20:11:39.211Z,48.26
2023-03-04T20:14:12.912Z,48.30
2023-03-04T20:16:41.379Z,47.84
2023-03-04T20:19:09.964Z,48.01
2023-03-04T20:21:39.076Z,48.07
2023-03-04T20:24:07.553Z,47.66
2023-03-04T20:26:35.939Z,47.70
2023-03-04T20:29:04.225Z,48.00
2023-03-04T20:31:38.543Z,48.18
2023-03-04T20:34:08.984Z,48.83
2023-03-04T20:36:38.782Z,49.18
2023-03-04T20:39:25.787Z,49.13
2023-03-04T20:41:59.824Z,48.67
2023-03-04T20:44:28.706Z,48.57
2023-03-04T20:46:58.072Z,48.31
2023-03-04T20:49:59.957Z,48.33
2023-03-04T20:52:39.202Z,49.28
2023-03-04T20:55:29.029Z,49.21
2023-03-04T20:58:16.483Z,49.60
2023-03-04T21:00:45.080Z,49.60
2023-03-04T21:03:13.453Z,49.74
2023-03-04T21:05:41.839Z,49.57
2023-03-04T21:08:10.324Z,49.64
2023-03-04T21:10:38.525Z,49.61
2023-03-04T21:13:11.402Z,49.82
2023-03-04T21:15:47.168Z,50.13
2023-03-04T21:18:16.255Z,50.12
2023-03-04T21:20:45.450Z,50.36
2023-03-04T21:23:14.464Z,50.70
2023-03-04T21:25:42.739Z,51.98
2023-03-04T21:28:11.219Z,51.68
2023-03-04T21:30:39.604Z,52.10
2023-03-04T21:33:17.208Z,52.07
2023-03-04T21:35:48.301Z,52.66
2023-03-04T21:38:16.733Z,53.51
2023-03-04T21:40:45.426Z,53.28
2023-03-04T21:43:13.918Z,54.33
2023-03-04T21:45:42.305Z,55.67
2023-03-04T21:48:10.797Z,55.94
2023-03-04T21:50:39.500Z,56.03
2023-03-04T21:53:07.682Z,55.76
2023-03-04T21:55:36.576Z,55.97
2023-03-04T21:58:05.305Z,55.12
2023-03-04T22:00:33.575Z,54.85
2023-03-04T22:03:02.040Z,54.59
2023-03-04T22:05:30.732Z,55.48
2023-03-04T22:07:59.216Z,55.52
2023-03-04T22:10:28.730Z,55.47
2023-03-04T22:12:57.116Z,55.86
2023-03-04T22:15:25.294Z,55.93
2023-03-04T22:17:53.853Z,56.03
2023-03-04T22:20:25.235Z,55.61
2023-03-04T22:22:53.417Z,55.32
2023-03-04T22:25:21.808Z,55.28
2023-03-04T22:27:50.289Z,55.44
2023-03-04T22:30:19.103Z,55.68
2023-03-04T22:32:48.775Z,55.79
2023-03-04T22:35:18.528Z,55.40
2023-03-04T22:37:46.808Z,55.45
2023-03-04T22:40:16.524Z,55.82
2023-03-04T22:42:46.808Z,55.24
2023-03-04T22:45:17.938Z,55.19
2023-03-04T22:47:52.418Z,55.03
2023-03-04T22:50:22.313Z,54.87
2023-03-04T22:52:50.615Z,54.76
2023-03-04T22:55:20.822Z,55.06
2023-03-04T22:57:49.856Z,54.95
2023-03-04T23:00:28.251Z,55.03
2023-03-04T23:02:57.393Z,54.85
2023-03-04T23:05:26.032Z,54.99
2023-03-04T23:07:54.624Z,55.02
2023-03-04T23:10:25.258Z,54.84
2023-03-04T23:12:54.668Z,54.72
2023-03-04T23:15:24.604Z,54.93
2023-03-04T23:17:53.074Z,54.78
2023-03-04T23:20:22.078Z,54.97
2023-03-04T23:22:50.675Z,55.04
2023-03-04T23:25:18.864Z,55.42
2023-03-04T23:27:47.432Z,55.39
2023-03-04T23:30:17.353Z,55.50
2023-03-04T23:32:45.546Z,55.74
2023-03-04T23:35:13.910Z,56.06
2023-03-04T23:37:42.503Z,56.36
2023-03-04T23:40:12.014Z,56.16
2023-03-04T23:42:40.252Z,56.29
2023-03-04T23:45:09.476Z,56.38
2023-03-04T23:47:38.090Z,56.69
2023-03-04T23:50:08.863Z,57.13
2023-03-04T23:52:37.214Z,57.38
2023-03-04T23:55:06.687Z,57.62
2023-03-04T23:57:35.006Z,57.96
